sensor_id;sensor_type;location;lat;lon;timestamp;P1;durP1;ratioP1;P2;durP2;ratioP2
25127;SDS011;13107;51.304;6.866;2023-05-21T00:03:00;15.88;;;10.65;;
25127;SDS011;13107;51.304;6.866;2023-05-21T00:07:02;16.87;;;11.40;;
25127;SDS011;13107;51.304;6.866;2023-05-21T00:11:04;12.93;;;10.65;;
25127;SDS011;13107;51.304;6.866;2023-05-21T00:15:06;14.85;;;11.52;;
25127;SDS011;13107;51.304;6.866;2023-05-21T00:19:09;16.58;;;11.48;;
25127;SDS011;13107;51.304;6.866;2023-05-21T00:23:10;14.73;;;11.12;;
25127;SDS011;13107;51.304;6.866;2023-05-21T00:27:12;15.55;;;12.13;;
25127;SDS011;13107;51.304;6.866;2023-05-21T00:31:14;17.55;;;11.65;;
25127;SDS011;13107;51.304;6.866;2023-05-21T00:35:17;16.50;;;11.48;;
25127;SDS011;13107;51.304;6.866;2023-05-21T00:39:19;15.98;;;11.55;;
25127;SDS011;13107;51.304;6.866;2023-05-21T00:43:21;15.88;;;12.60;;
25127;SDS011;13107;51.304;6.866;2023-05-21T00:47:26;16.75;;;12.30;;
25127;SDS011;13107;51.304;6.866;2023-05-21T00:51:30;15.65;;;12.30;;
25127;SDS011;13107;51.304;6.866;2023-05-21T00:55:31;17.15;;;12.63;;
25127;SDS011;13107;51.304;6.866;2023-05-21T00:59:34;16.60;;;12.32;;
25127;SDS011;13107;51.304;6.866;2023-05-21T01:03:36;13.65;;;11.32;;
25127;SDS011;13107;51.304;6.866;2023-05-21T01:07:39;13.73;;;11.75;;
25127;SDS011;13107;51.304;6.866;2023-05-21T01:11:42;13.95;;;11.25;;
25127;SDS011;13107;51.304;6.866;2023-05-21T01:15:47;15.13;;;11.27;;
25127;SDS011;13107;51.304;6.866;2023-05-21T01:19:50;14.23;;;11.35;;
25127;SDS011;13107;51.304;6.866;2023-05-21T01:23:52;14.55;;;11.45;;
25127;SDS011;13107;51.304;6.866;2023-05-21T01:27:54;16.12;;;12.13;;
25127;SDS011;13107;51.304;6.866;2023-05-21T01:36:35;16.90;;;12.48;;
25127;SDS011;13107;51.304;6.866;2023-05-21T01:44:54;18.58;;;11.60;;
25127;SDS011;13107;51.304;6.866;2023-05-21T01:48:59;14.32;;;11.23;;
25127;SDS011;13107;51.304;6.866;2023-05-21T01:53:02;14.07;;;10.95;;
25127;SDS011;13107;51.304;6.866;2023-05-21T01:57:13;16.75;;;11.60;;
25127;SDS011;13107;51.304;6.866;2023-05-21T02:01:14;14.35;;;10.70;;
25127;SDS011;13107;51.304;6.866;2023-05-21T02:05:16;14.32;;;11.45;;
25127;SDS011;13107;51.304;6.866;2023-05-21T02:09:19;13.40;;;11.07;;
25127;SDS011;13107;51.304;6.866;2023-05-21T02:13:21;15.00;;;11.25;;
25127;SDS011;13107;51.304;6.866;2023-05-21T02:17:26;12.85;;;10.38;;
25127;SDS011;13107;51.304;6.866;2023-05-21T02:21:31;18.37;;;10.60;;
25127;SDS011;13107;51.304;6.866;2023-05-21T02:25:33;13.30;;;9.43;;
25127;SDS011;13107;51.304;6.866;2023-05-21T02:29:35;13.88;;;10.50;;
25127;SDS011;13107;51.304;6.866;2023-05-21T02:33:38;17.27;;;10.13;;
25127;SDS011;13107;51.304;6.866;2023-05-21T02:37:41;13.52;;;9.40;;
25127;SDS011;13107;51.304;6.866;2023-05-21T02:41:44;13.45;;;9.27;;
25127;SDS011;13107;51.304;6.866;2023-05-21T02:45:47;12.90;;;9.40;;
25127;SDS011;13107;51.304;6.866;2023-05-21T02:49:51;11.27;;;8.93;;
25127;SDS011;13107;51.304;6.866;2023-05-21T02:53:54;14.63;;;9.20;;
25127;SDS011;13107;51.304;6.866;2023-05-21T02:57:56;11.90;;;9.02;;
25127;SDS011;13107;51.304;6.866;2023-05-21T03:01:57;11.82;;;9.38;;
25127;SDS011;13107;51.304;6.866;2023-05-21T03:05:59;10.05;;;8.95;;
25127;SDS011;13107;51.304;6.866;2023-05-21T03:10:01;12.90;;;9.38;;
25127;SDS011;13107;51.304;6.866;2023-05-21T03:14:03;13.95;;;10.13;;
25127;SDS011;13107;51.304;6.866;2023-05-21T03:18:06;14.07;;;9.93;;
25127;SDS011;13107;51.304;6.866;2023-05-21T03:22:08;12.20;;;9.85;;
25127;SDS011;13107;51.304;6.866;2023-05-21T03:26:11;15.23;;;9.63;;
25127;SDS011;13107;51.304;6.866;2023-05-21T03:30:14;10.88;;;9.40;;
25127;SDS011;13107;51.304;6.866;2023-05-21T03:34:16;11.65;;;8.65;;
25127;SDS011;13107;51.304;6.866;2023-05-21T03:38:20;15.60;;;9.48;;
25127;SDS011;13107;51.304;6.866;2023-05-21T03:42:21;10.35;;;9.05;;
25127;SDS011;13107;51.304;6.866;2023-05-21T03:46:23;11.60;;;9.50;;
25127;SDS011;13107;51.304;6.866;2023-05-21T03:50:26;13.10;;;9.40;;
25127;SDS011;13107;51.304;6.866;2023-05-21T03:54:28;13.50;;;10.00;;
25127;SDS011;13107;51.304;6.866;2023-05-21T03:58:30;11.60;;;9.07;;
25127;SDS011;13107;51.304;6.866;2023-05-21T04:02:32;14.30;;;9.40;;
25127;SDS011;13107;51.304;6.866;2023-05-21T04:06:35;11.90;;;9.65;;
25127;SDS011;13107;51.304;6.866;2023-05-21T04:10:37;11.20;;;9.57;;
25127;SDS011;13107;51.304;6.866;2023-05-21T04:14:38;12.15;;;9.38;;
25127;SDS011;13107;51.304;6.866;2023-05-21T04:18:40;11.43;;;9.32;;
25127;SDS011;13107;51.304;6.866;2023-05-21T04:22:45;10.93;;;8.95;;
25127;SDS011;13107;51.304;6.866;2023-05-21T04:26:47;12.73;;;9.15;;
25127;SDS011;13107;51.304;6.866;2023-05-21T04:30:50;13.40;;;9.63;;
25127;SDS011;13107;51.304;6.866;2023-05-21T04:34:51;9.35;;;8.38;;
25127;SDS011;13107;51.304;6.866;2023-05-21T04:38:53;12.27;;;9.88;;
25127;SDS011;13107;51.304;6.866;2023-05-21T04:42:55;13.07;;;9.30;;
25127;SDS011;13107;51.304;6.866;2023-05-21T04:46:58;12.32;;;9.70;;
25127;SDS011;13107;51.304;6.866;2023-05-21T04:51:00;13.70;;;9.02;;
25127;SDS011;13107;51.304;6.866;2023-05-21T04:55:06;11.45;;;9.23;;
25127;SDS011;13107;51.304;6.866;2023-05-21T04:59:09;12.18;;;9.57;;
25127;SDS011;13107;51.304;6.866;2023-05-21T05:03:11;13.27;;;10.00;;
25127;SDS011;13107;51.304;6.866;2023-05-21T05:07:13;13.18;;;9.25;;
25127;SDS011;13107;51.304;6.866;2023-05-21T05:11:15;11.73;;;9.10;;
25127;SDS011;13107;51.304;6.866;2023-05-21T05:15:17;13.80;;;9.02;;
25127;SDS011;13107;51.304;6.866;2023-05-21T05:19:19;12.25;;;9.10;;
25127;SDS011;13107;51.304;6.866;2023-05-21T05:23:21;10.82;;;8.75;;
25127;SDS011;13107;51.304;6.866;2023-05-21T05:27:22;11.48;;;9.15;;
25127;SDS011;13107;51.304;6.866;2023-05-21T05:31:24;11.18;;;8.85;;
25127;SDS011;13107;51.304;6.866;2023-05-21T05:35:26;11.60;;;8.93;;
25127;SDS011;13107;51.304;6.866;2023-05-21T05:39:28;11.00;;;9.10;;
25127;SDS011;13107;51.304;6.866;2023-05-21T05:43:30;11.15;;;8.57;;
25127;SDS011;13107;51.304;6.866;2023-05-21T05:47:32;11.40;;;9.55;;
25127;SDS011;13107;51.304;6.866;2023-05-21T05:51:33;9.18;;;8.27;;
25127;SDS011;13107;51.304;6.866;2023-05-21T05:55:36;11.73;;;9.52;;
25127;SDS011;13107;51.304;6.866;2023-05-21T05:59:38;10.32;;;8.45;;
25127;SDS011;13107;51.304;6.866;2023-05-21T06:03:40;11.63;;;9.48;;
25127;SDS011;13107;51.304;6.866;2023-05-21T06:07:42;13.25;;;9.77;;
25127;SDS011;13107;51.304;6.866;2023-05-21T06:11:44;11.30;;;9.75;;
25127;SDS011;13107;51.304;6.866;2023-05-21T06:15:45;10.13;;;8.60;;
25127;SDS011;13107;51.304;6.866;2023-05-21T06:19:47;12.75;;;9.45;;
25127;SDS011;13107;51.304;6.866;2023-05-21T06:23:49;10.07;;;8.95;;
25127;SDS011;13107;51.304;6.866;2023-05-21T06:27:51;12.65;;;9.30;;
25127;SDS011;13107;51.304;6.866;2023-05-21T06:31:52;10.50;;;8.73;;
25127;SDS011;13107;51.304;6.866;2023-05-21T06:35:54;13.00;;;9.82;;
25127;SDS011;13107;51.304;6.866;2023-05-21T06:39:56;10.30;;;8.98;;
25127;SDS011;13107;51.304;6.866;2023-05-21T06:43:58;10.25;;;8.73;;
25127;SDS011;13107;51.304;6.866;2023-05-21T06:48:00;12.80;;;9.35;;
25127;SDS011;13107;51.304;6.866;2023-05-21T06:52:01;10.80;;;9.32;;
25127;SDS011;13107;51.304;6.866;2023-05-21T06:56:03;14.65;;;8.70;;
25127;SDS011;13107;51.304;6.866;2023-05-21T07:00:05;11.65;;;8.57;;
25127;SDS011;13107;51.304;6.866;2023-05-21T07:04:09;10.88;;;8.88;;
25127;SDS011;13107;51.304;6.866;2023-05-21T07:08:11;10.63;;;8.98;;
25127;SDS011;13107;51.304;6.866;2023-05-21T07:12:13;10.48;;;9.05;;
25127;SDS011;13107;51.304;6.866;2023-05-21T07:16:14;11.80;;;8.75;;
25127;SDS011;13107;51.304;6.866;2023-05-21T07:20:18;13.45;;;9.55;;
25127;SDS011;13107;51.304;6.866;2023-05-21T07:24:19;12.73;;;8.95;;
25127;SDS011;13107;51.304;6.866;2023-05-21T07:28:21;10.98;;;9.40;;
25127;SDS011;13107;51.304;6.866;2023-05-21T07:32:23;11.20;;;9.52;;
25127;SDS011;13107;51.304;6.866;2023-05-21T07:36:26;20.98;;;16.70;;
25127;SDS011;13107;51.304;6.866;2023-05-21T07:40:29;12.25;;;10.45;;
25127;SDS011;13107;51.304;6.866;2023-05-21T07:44:31;11.70;;;10.50;;
25127;SDS011;13107;51.304;6.866;2023-05-21T07:48:33;14.57;;;10.55;;
25127;SDS011;13107;51.304;6.866;2023-05-21T07:52:36;13.35;;;10.40;;
25127;SDS011;13107;51.304;6.866;2023-05-21T07:56:37;14.90;;;10.40;;
25127;SDS011;13107;51.304;6.866;2023-05-21T08:00:43;15.63;;;12.35;;
25127;SDS011;13107;51.304;6.866;2023-05-21T08:04:47;12.80;;;10.88;;
25127;SDS011;13107;51.304;6.866;2023-05-21T08:08:49;12.93;;;11.52;;
25127;SDS011;13107;51.304;6.866;2023-05-21T08:12:51;13.75;;;11.12;;
25127;SDS011;13107;51.304;6.866;2023-05-21T08:16:52;13.38;;;10.38;;
25127;SDS011;13107;51.304;6.866;2023-05-21T08:20:54;13.27;;;11.88;;
25127;SDS011;13107;51.304;6.866;2023-05-21T08:24:56;14.87;;;11.12;;
25127;SDS011;13107;51.304;6.866;2023-05-21T08:28:58;14.87;;;10.70;;
25127;SDS011;13107;51.304;6.866;2023-05-21T08:33:00;16.00;;;10.77;;
25127;SDS011;13107;51.304;6.866;2023-05-21T08:37:02;14.43;;;10.95;;
25127;SDS011;13107;51.304;6.866;2023-05-21T08:41:05;12.07;;;10.80;;
25127;SDS011;13107;51.304;6.866;2023-05-21T08:45:07;13.02;;;10.40;;
25127;SDS011;13107;51.304;6.866;2023-05-21T08:49:13;13.10;;;11.70;;
25127;SDS011;13107;51.304;6.866;2023-05-21T08:53:18;12.57;;;11.05;;
25127;SDS011;13107;51.304;6.866;2023-05-21T08:57:29;15.48;;;12.30;;
25127;SDS011;13107;51.304;6.866;2023-05-21T09:01:32;16.37;;;11.85;;
25127;SDS011;13107;51.304;6.866;2023-05-21T09:05:37;12.80;;;11.50;;
25127;SDS011;13107;51.304;6.866;2023-05-21T09:14:12;13.07;;;11.68;;
25127;SDS011;13107;51.304;6.866;2023-05-21T09:18:15;16.62;;;14.15;;
25127;SDS011;13107;51.304;6.866;2023-05-21T09:22:17;14.32;;;12.82;;
25127;SDS011;13107;51.304;6.866;2023-05-21T09:26:24;12.60;;;11.30;;
25127;SDS011;13107;51.304;6.866;2023-05-21T09:30:26;15.90;;;11.45;;
25127;SDS011;13107;51.304;6.866;2023-05-21T09:34:34;13.18;;;11.02;;
25127;SDS011;13107;51.304;6.866;2023-05-21T09:38:36;13.80;;;12.30;;
25127;SDS011;13107;51.304;6.866;2023-05-21T09:42:38;13.70;;;12.00;;
25127;SDS011;13107;51.304;6.866;2023-05-21T09:46:41;17.00;;;11.00;;
25127;SDS011;13107;51.304;6.866;2023-05-21T09:50:43;14.45;;;12.95;;
25127;SDS011;13107;51.304;6.866;2023-05-21T09:54:46;13.18;;;11.73;;
25127;SDS011;13107;51.304;6.866;2023-05-21T09:58:47;13.88;;;11.93;;
25127;SDS011;13107;51.304;6.866;2023-05-21T10:02:55;14.10;;;12.48;;
25127;SDS011;13107;51.304;6.866;2023-05-21T10:07:01;15.15;;;12.37;;
25127;SDS011;13107;51.304;6.866;2023-05-21T10:11:04;14.32;;;12.50;;
25127;SDS011;13107;51.304;6.866;2023-05-21T10:15:08;13.85;;;12.37;;
25127;SDS011;13107;51.304;6.866;2023-05-21T10:19:12;15.80;;;12.82;;
25127;SDS011;13107;51.304;6.866;2023-05-21T10:23:16;12.95;;;11.65;;
25127;SDS011;13107;51.304;6.866;2023-05-21T10:27:19;14.95;;;12.50;;
25127;SDS011;13107;51.304;6.866;2023-05-21T10:31:22;15.48;;;12.43;;
25127;SDS011;13107;51.304;6.866;2023-05-21T10:35:26;17.27;;;14.48;;
25127;SDS011;13107;51.304;6.866;2023-05-21T10:39:29;17.27;;;14.90;;
25127;SDS011;13107;51.304;6.866;2023-05-21T10:48:32;18.52;;;13.68;;
25127;SDS011;13107;51.304;6.866;2023-05-21T10:53:01;16.23;;;13.32;;
25127;SDS011;13107;51.304;6.866;2023-05-21T11:01:14;16.00;;;14.35;;
25127;SDS011;13107;51.304;6.866;2023-05-21T11:05:49;15.40;;;13.23;;
25127;SDS011;13107;51.304;6.866;2023-05-21T11:09:51;17.17;;;13.32;;
25127;SDS011;13107;51.304;6.866;2023-05-21T11:13:53;15.73;;;14.05;;
25127;SDS011;13107;51.304;6.866;2023-05-21T11:17:55;17.12;;;13.85;;
25127;SDS011;13107;51.304;6.866;2023-05-21T11:21:57;18.83;;;13.18;;
25127;SDS011;13107;51.304;6.866;2023-05-21T11:26:02;15.68;;;14.00;;
25127;SDS011;13107;51.304;6.866;2023-05-21T11:30:06;15.20;;;12.50;;
25127;SDS011;13107;51.304;6.866;2023-05-21T11:34:13;16.62;;;10.85;;
25127;SDS011;13107;51.304;6.866;2023-05-21T11:38:16;15.57;;;12.45;;
25127;SDS011;13107;51.304;6.866;2023-05-21T11:42:34;17.23;;;13.40;;
25127;SDS011;13107;51.304;6.866;2023-05-21T11:46:39;12.25;;;11.02;;
25127;SDS011;13107;51.304;6.866;2023-05-21T11:50:41;14.57;;;12.93;;
25127;SDS011;13107;51.304;6.866;2023-05-21T11:54:44;14.48;;;12.37;;
25127;SDS011;13107;51.304;6.866;2023-05-21T11:58:48;15.77;;;14.13;;
25127;SDS011;13107;51.304;6.866;2023-05-21T12:02:50;16.90;;;13.62;;
25127;SDS011;13107;51.304;6.866;2023-05-21T12:06:54;17.30;;;12.88;;
25127;SDS011;13107;51.304;6.866;2023-05-21T12:10:58;16.30;;;13.75;;
25127;SDS011;13107;51.304;6.866;2023-05-21T12:15:01;15.15;;;13.55;;
25127;SDS011;13107;51.304;6.866;2023-05-21T12:19:04;18.33;;;14.70;;
25127;SDS011;13107;51.304;6.866;2023-05-21T12:23:06;18.50;;;13.82;;
25127;SDS011;13107;51.304;6.866;2023-05-21T12:27:08;15.85;;;13.38;;
25127;SDS011;13107;51.304;6.866;2023-05-21T12:31:13;13.73;;;11.38;;
25127;SDS011;13107;51.304;6.866;2023-05-21T12:35:20;16.45;;;12.80;;
25127;SDS011;13107;51.304;6.866;2023-05-21T12:39:23;13.18;;;11.25;;
25127;SDS011;13107;51.304;6.866;2023-05-21T12:43:25;14.93;;;12.60;;
25127;SDS011;13107;51.304;6.866;2023-05-21T12:47:32;12.57;;;11.38;;
25127;SDS011;13107;51.304;6.866;2023-05-21T12:51:38;16.42;;;12.65;;
25127;SDS011;13107;51.304;6.866;2023-05-21T12:55:40;14.57;;;11.53;;
25127;SDS011;13107;51.304;6.866;2023-05-21T12:59:48;15.00;;;13.50;;
25127;SDS011;13107;51.304;6.866;2023-05-21T13:03:52;17.37;;;14.07;;
25127;SDS011;13107;51.304;6.866;2023-05-21T13:07:54;16.95;;;13.43;;
25127;SDS011;13107;51.304;6.866;2023-05-21T13:11:56;12.70;;;11.40;;
25127;SDS011;13107;51.304;6.866;2023-05-21T13:15:57;16.00;;;12.35;;
25127;SDS011;13107;51.304;6.866;2023-05-21T13:20:11;18.25;;;16.35;;
25127;SDS011;13107;51.304;6.866;2023-05-21T13:24:18;14.15;;;12.65;;
25127;SDS011;13107;51.304;6.866;2023-05-21T13:28:20;13.82;;;12.37;;
25127;SDS011;13107;51.304;6.866;2023-05-21T13:32:23;18.87;;;14.40;;
25127;SDS011;13107;51.304;6.866;2023-05-21T13:36:25;14.75;;;13.35;;
25127;SDS011;13107;51.304;6.866;2023-05-21T13:40:27;19.42;;;14.10;;
25127;SDS011;13107;51.304;6.866;2023-05-21T13:44:29;17.08;;;14.05;;
25127;SDS011;13107;51.304;6.866;2023-05-21T13:48:33;18.65;;;14.55;;
25127;SDS011;13107;51.304;6.866;2023-05-21T13:52:35;16.15;;;14.10;;
25127;SDS011;13107;51.304;6.866;2023-05-21T13:56:38;17.08;;;15.02;;
25127;SDS011;13107;51.304;6.866;2023-05-21T14:00:40;14.75;;;13.15;;
25127;SDS011;13107;51.304;6.866;2023-05-21T14:04:43;14.38;;;12.75;;
25127;SDS011;13107;51.304;6.866;2023-05-21T14:08:45;16.25;;;12.48;;
25127;SDS011;13107;51.304;6.866;2023-05-21T14:12:47;17.00;;;13.07;;
25127;SDS011;13107;51.304;6.866;2023-05-21T14:16:49;13.55;;;11.95;;
25127;SDS011;13107;51.304;6.866;2023-05-21T14:20:52;15.32;;;11.95;;
25127;SDS011;13107;51.304;6.866;2023-05-21T14:24:54;14.02;;;11.82;;
25127;SDS011;13107;51.304;6.866;2023-05-21T14:28:56;14.13;;;11.32;;
25127;SDS011;13107;51.304;6.866;2023-05-21T14:32:58;14.02;;;12.50;;
25127;SDS011;13107;51.304;6.866;2023-05-21T14:37:00;13.45;;;12.05;;
25127;SDS011;13107;51.304;6.866;2023-05-21T14:41:01;15.93;;;12.32;;
25127;SDS011;13107;51.304;6.866;2023-05-21T14:45:04;12.30;;;10.45;;
25127;SDS011;13107;51.304;6.866;2023-05-21T14:49:19;12.27;;;10.43;;
25127;SDS011;13107;51.304;6.866;2023-05-21T14:53:21;13.65;;;10.68;;
25127;SDS011;13107;51.304;6.866;2023-05-21T14:57:22;11.02;;;9.25;;
25127;SDS011;13107;51.304;6.866;2023-05-21T15:01:24;14.07;;;10.68;;
25127;SDS011;13107;51.304;6.866;2023-05-21T15:05:26;13.25;;;11.77;;
25127;SDS011;13107;51.304;6.866;2023-05-21T15:09:29;15.35;;;11.68;;
25127;SDS011;13107;51.304;6.866;2023-05-21T15:13:31;13.85;;;12.27;;
25127;SDS011;13107;51.304;6.866;2023-05-21T15:17:33;14.30;;;11.77;;
25127;SDS011;13107;51.304;6.866;2023-05-21T15:21:36;14.98;;;12.63;;
25127;SDS011;13107;51.304;6.866;2023-05-21T15:25:38;15.60;;;12.48;;
25127;SDS011;13107;51.304;6.866;2023-05-21T15:29:40;13.77;;;11.57;;
25127;SDS011;13107;51.304;6.866;2023-05-21T15:33:42;16.17;;;12.80;;
25127;SDS011;13107;51.304;6.866;2023-05-21T15:37:44;14.18;;;12.35;;
25127;SDS011;13107;51.304;6.866;2023-05-21T15:41:46;15.40;;;13.55;;
25127;SDS011;13107;51.304;6.866;2023-05-21T15:45:48;15.10;;;11.55;;
25127;SDS011;13107;51.304;6.866;2023-05-21T15:49:49;12.75;;;11.43;;
25127;SDS011;13107;51.304;6.866;2023-05-21T15:53:51;13.00;;;11.50;;
25127;SDS011;13107;51.304;6.866;2023-05-21T15:57:53;15.65;;;12.32;;
25127;SDS011;13107;51.304;6.866;2023-05-21T16:01:55;14.50;;;12.50;;
25127;SDS011;13107;51.304;6.866;2023-05-21T16:05:57;17.10;;;12.32;;
25127;SDS011;13107;51.304;6.866;2023-05-21T16:09:59;14.27;;;12.25;;
25127;SDS011;13107;51.304;6.866;2023-05-21T16:14:01;15.05;;;12.20;;
25127;SDS011;13107;51.304;6.866;2023-05-21T16:18:03;15.90;;;12.68;;
25127;SDS011;13107;51.304;6.866;2023-05-21T16:22:05;14.68;;;12.75;;
25127;SDS011;13107;51.304;6.866;2023-05-21T16:26:07;13.88;;;12.48;;
25127;SDS011;13107;51.304;6.866;2023-05-21T16:30:10;15.80;;;13.70;;
25127;SDS011;13107;51.304;6.866;2023-05-21T16:34:12;13.93;;;12.30;;
25127;SDS011;13107;51.304;6.866;2023-05-21T16:38:14;13.23;;;11.93;;
25127;SDS011;13107;51.304;6.866;2023-05-21T16:42:16;16.45;;;11.93;;
25127;SDS011;13107;51.304;6.866;2023-05-21T16:46:18;13.77;;;10.93;;
25127;SDS011;13107;51.304;6.866;2023-05-21T16:50:20;15.52;;;11.80;;
25127;SDS011;13107;51.304;6.866;2023-05-21T16:54:22;14.38;;;12.60;;
25127;SDS011;13107;51.304;6.866;2023-05-21T16:58:23;13.00;;;11.68;;
25127;SDS011;13107;51.304;6.866;2023-05-21T17:02:25;12.95;;;11.55;;
25127;SDS011;13107;51.304;6.866;2023-05-21T17:06:27;14.32;;;11.93;;
25127;SDS011;13107;51.304;6.866;2023-05-21T17:10:29;14.87;;;13.27;;
25127;SDS011;13107;51.304;6.866;2023-05-21T17:14:33;13.62;;;12.23;;
25127;SDS011;13107;51.304;6.866;2023-05-21T17:18:37;12.30;;;11.10;;
25127;SDS011;13107;51.304;6.866;2023-05-21T17:22:39;16.20;;;11.15;;
25127;SDS011;13107;51.304;6.866;2023-05-21T17:26:41;13.25;;;11.48;;
25127;SDS011;13107;51.304;6.866;2023-05-21T17:30:43;13.27;;;11.52;;
25127;SDS011;13107;51.304;6.866;2023-05-21T17:34:46;13.07;;;11.75;;
25127;SDS011;13107;51.304;6.866;2023-05-21T17:38:48;33.70;;;28.62;;
25127;SDS011;13107;51.304;6.866;2023-05-21T17:42:51;14.93;;;12.00;;
25127;SDS011;13107;51.304;6.866;2023-05-21T17:46:53;15.60;;;12.25;;
25127;SDS011;13107;51.304;6.866;2023-05-21T17:50:56;13.68;;;12.00;;
25127;SDS011;13107;51.304;6.866;2023-05-21T17:54:59;13.60;;;11.82;;
25127;SDS011;13107;51.304;6.866;2023-05-21T17:59:01;13.02;;;11.73;;
25127;SDS011;13107;51.304;6.866;2023-05-21T18:03:03;15.02;;;11.90;;
25127;SDS011;13107;51.304;6.866;2023-05-21T18:07:05;16.12;;;12.13;;
25127;SDS011;13107;51.304;6.866;2023-05-21T18:11:07;13.62;;;12.23;;
25127;SDS011;13107;51.304;6.866;2023-05-21T18:15:09;16.15;;;13.30;;
25127;SDS011;13107;51.304;6.866;2023-05-21T18:19:11;14.43;;;12.70;;
25127;SDS011;13107;51.304;6.866;2023-05-21T18:23:13;14.02;;;12.48;;
25127;SDS011;13107;51.304;6.866;2023-05-21T18:27:15;14.35;;;12.48;;
25127;SDS011;13107;51.304;6.866;2023-05-21T18:31:16;15.05;;;12.93;;
25127;SDS011;13107;51.304;6.866;2023-05-21T18:35:19;13.35;;;11.95;;
25127;SDS011;13107;51.304;6.866;2023-05-21T18:39:21;13.70;;;12.05;;
25127;SDS011;13107;51.304;6.866;2023-05-21T18:43:24;13.95;;;12.23;;
25127;SDS011;13107;51.304;6.866;2023-05-21T18:47:26;14.02;;;12.02;;
25127;SDS011;13107;51.304;6.866;2023-05-21T18:51:28;16.17;;;13.43;;
25127;SDS011;13107;51.304;6.866;2023-05-21T18:55:30;15.18;;;13.23;;
25127;SDS011;13107;51.304;6.866;2023-05-21T18:59:32;16.75;;;13.57;;
25127;SDS011;13107;51.304;6.866;2023-05-21T19:03:33;17.60;;;13.23;;
25127;SDS011;13107;51.304;6.866;2023-05-21T19:07:35;15.43;;;13.23;;
25127;SDS011;13107;51.304;6.866;2023-05-21T19:11:37;15.57;;;13.77;;
25127;SDS011;13107;51.304;6.866;2023-05-21T19:15:39;17.65;;;14.73;;
25127;SDS011;13107;51.304;6.866;2023-05-21T19:19:41;15.85;;;13.75;;
25127;SDS011;13107;51.304;6.866;2023-05-21T19:23:43;16.52;;;14.30;;
25127;SDS011;13107;51.304;6.866;2023-05-21T19:27:53;15.95;;;14.27;;
25127;SDS011;13107;51.304;6.866;2023-05-21T19:31:56;18.15;;;14.52;;
25127;SDS011;13107;51.304;6.866;2023-05-21T19:35:59;15.60;;;13.82;;
25127;SDS011;13107;51.304;6.866;2023-05-21T19:40:01;14.93;;;13.43;;
25127;SDS011;13107;51.304;6.866;2023-05-21T19:44:02;16.00;;;14.32;;
25127;SDS011;13107;51.304;6.866;2023-05-21T19:48:04;17.05;;;14.85;;
25127;SDS011;13107;51.304;6.866;2023-05-21T19:52:07;20.88;;;17.00;;
25127;SDS011;13107;51.304;6.866;2023-05-21T19:56:10;19.92;;;17.02;;
25127;SDS011;13107;51.304;6.866;2023-05-21T20:00:12;21.10;;;18.15;;
25127;SDS011;13107;51.304;6.866;2023-05-21T20:04:14;21.50;;;19.20;;
25127;SDS011;13107;51.304;6.866;2023-05-21T20:08:16;22.20;;;19.58;;
25127;SDS011;13107;51.304;6.866;2023-05-21T20:12:18;28.50;;;22.62;;
25127;SDS011;13107;51.304;6.866;2023-05-21T20:16:20;29.67;;;23.38;;
25127;SDS011;13107;51.304;6.866;2023-05-21T20:20:23;31.77;;;25.83;;
25127;SDS011;13107;51.304;6.866;2023-05-21T20:24:26;33.05;;;26.48;;
25127;SDS011;13107;51.304;6.866;2023-05-21T20:28:28;32.47;;;27.98;;
25127;SDS011;13107;51.304;6.866;2023-05-21T20:32:30;34.10;;;27.80;;
25127;SDS011;13107;51.304;6.866;2023-05-21T20:36:32;36.50;;;29.15;;
25127;SDS011;13107;51.304;6.866;2023-05-21T20:40:35;34.22;;;28.83;;
25127;SDS011;13107;51.304;6.866;2023-05-21T20:44:37;37.83;;;30.50;;
25127;SDS011;13107;51.304;6.866;2023-05-21T20:48:39;32.90;;;29.25;;
25127;SDS011;13107;51.304;6.866;2023-05-21T20:52:41;35.13;;;29.95;;
25127;SDS011;13107;51.304;6.866;2023-05-21T20:56:47;38.30;;;33.20;;
25127;SDS011;13107;51.304;6.866;2023-05-21T21:00:51;34.35;;;30.37;;
25127;SDS011;13107;51.304;6.866;2023-05-21T21:04:55;41.70;;;33.60;;
25127;SDS011;13107;51.304;6.866;2023-05-21T21:08:58;41.42;;;35.08;;
25127;SDS011;13107;51.304;6.866;2023-05-21T21:12:59;40.88;;;34.92;;
25127;SDS011;13107;51.304;6.866;2023-05-21T21:17:01;44.95;;;37.72;;
25127;SDS011;13107;51.304;6.866;2023-05-21T21:21:03;42.58;;;35.65;;
25127;SDS011;13107;51.304;6.866;2023-05-21T21:25:06;45.90;;;37.90;;
25127;SDS011;13107;51.304;6.866;2023-05-21T21:29:08;43.78;;;36.78;;
25127;SDS011;13107;51.304;6.866;2023-05-21T21:33:10;50.12;;;40.45;;
25127;SDS011;13107;51.304;6.866;2023-05-21T21:37:14;51.67;;;42.72;;
25127;SDS011;13107;51.304;6.866;2023-05-21T21:41:16;51.53;;;40.60;;
25127;SDS011;13107;51.304;6.866;2023-05-21T21:45:20;56.03;;;40.70;;
25127;SDS011;13107;51.304;6.866;2023-05-21T21:49:22;53.35;;;40.67;;
25127;SDS011;13107;51.304;6.866;2023-05-21T21:53:23;46.03;;;38.05;;
25127;SDS011;13107;51.304;6.866;2023-05-21T21:57:25;47.03;;;38.08;;
25127;SDS011;13107;51.304;6.866;2023-05-21T22:01:29;41.53;;;36.33;;
25127;SDS011;13107;51.304;6.866;2023-05-21T22:05:31;44.92;;;36.80;;
25127;SDS011;13107;51.304;6.866;2023-05-21T22:09:34;41.75;;;35.08;;
25127;SDS011;13107;51.304;6.866;2023-05-21T22:13:36;37.60;;;31.95;;
25127;SDS011;13107;51.304;6.866;2023-05-21T22:17:37;40.72;;;34.83;;
25127;SDS011;13107;51.304;6.866;2023-05-21T22:21:40;41.40;;;34.92;;
25127;SDS011;13107;51.304;6.866;2023-05-21T22:25:42;42.45;;;36.92;;
25127;SDS011;13107;51.304;6.866;2023-05-21T22:29:44;44.92;;;39.00;;
25127;SDS011;13107;51.304;6.866;2023-05-21T22:33:45;48.45;;;39.22;;
25127;SDS011;13107;51.304;6.866;2023-05-21T22:37:47;47.95;;;40.35;;
25127;SDS011;13107;51.304;6.866;2023-05-21T22:41:49;47.30;;;39.25;;
25127;SDS011;13107;51.304;6.866;2023-05-21T22:45:51;43.50;;;35.85;;
25127;SDS011;13107;51.304;6.866;2023-05-21T22:49:52;45.75;;;38.25;;
25127;SDS011;13107;51.304;6.866;2023-05-21T22:53:54;42.03;;;37.10;;
25127;SDS011;13107;51.304;6.866;2023-05-21T22:57:56;46.30;;;38.80;;
25127;SDS011;13107;51.304;6.866;2023-05-21T23:01:58;54.38;;;42.47;;
25127;SDS011;13107;51.304;6.866;2023-05-21T23:06:00;55.05;;;42.30;;
25127;SDS011;13107;51.304;6.866;2023-05-21T23:10:02;54.28;;;42.55;;
25127;SDS011;13107;51.304;6.866;2023-05-21T23:14:04;53.50;;;41.20;;
25127;SDS011;13107;51.304;6.866;2023-05-21T23:18:05;52.20;;;38.08;;
25127;SDS011;13107;51.304;6.866;2023-05-21T23:22:08;47.17;;;37.90;;
25127;SDS011;13107;51.304;6.866;2023-05-21T23:26:10;48.33;;;37.13;;
25127;SDS011;13107;51.304;6.866;2023-05-21T23:30:12;43.63;;;35.97;;
25127;SDS011;13107;51.304;6.866;2023-05-21T23:34:14;42.40;;;34.30;;
25127;SDS011;13107;51.304;6.866;2023-05-21T23:38:16;41.72;;;34.20;;
25127;SDS011;13107;51.304;6.866;2023-05-21T23:42:18;35.22;;;29.37;;
25127;SDS011;13107;51.304;6.866;2023-05-21T23:46:19;36.22;;;31.20;;
25127;SDS011;13107;51.304;6.866;2023-05-21T23:50:23;33.47;;;28.77;;
25127;SDS011;13107;51.304;6.866;2023-05-21T23:54:24;32.67;;;27.08;;
25127;SDS011;13107;51.304;6.866;2023-05-21T23:58:27;32.00;;;26.20;;
